sensor_id;sensor_type;location;lat;lon;timestamp;temperature;humidity
1678;DHT22;6034;46.864;15.216;2023-07-24T04:30:15;21.40;99.90
1678;DHT22;6034;46.864;15.216;2023-07-24T04:32:43;21.50;99.90
1678;DHT22;6034;46.864;15.216;2023-07-24T04:35:11;21.50;99.90
1678;DHT22;6034;46.864;15.216;2023-07-24T04:37:39;21.60;99.90
1678;DHT22;6034;46.864;15.216;2023-07-24T04:40:07;21.60;99.90
1678;DHT22;6034;46.864;15.216;2023-07-24T04:42:34;21.70;99.90
1678;DHT22;6034;46.864;15.216;2023-07-24T04:45:01;21.80;99.90
1678;DHT22;6034;46.864;15.216;2023-07-24T04:47:30;21.90;99.90
1678;DHT22;6034;46.864;15.216;2023-07-24T04:49:57;22.00;99.90
1678;DHT22;6034;46.864;15.216;2023-07-24T04:52:25;22.00;99.90
1678;DHT22;6034;46.864;15.216;2023-07-24T04:54:52;22.00;99.90
1678;DHT22;6034;46.864;15.216;2023-07-24T04:57:19;22.10;99.90
1678;DHT22;6034;46.864;15.216;2023-07-24T04:59:46;22.30;99.90
1678;DHT22;6034;46.864;15.216;2023-07-24T05:02:13;22.30;99.90
1678;DHT22;6034;46.864;15.216;2023-07-24T05:04:42;22.60;99.90
1678;DHT22;6034;46.864;15.216;2023-07-24T05:07:10;22.60;99.90
1678;DHT22;6034;46.864;15.216;2023-07-24T05:09:37;22.60;99.90
1678;DHT22;6034;46.864;15.216;2023-07-24T05:12:05;22.50;99.90
1678;DHT22;6034;46.864;15.216;2023-07-24T05:14:33;22.80;99.90
1678;DHT22;6034;46.864;15.216;2023-07-24T05:17:00;22.80;99.90
1678;DHT22;6034;46.864;15.216;2023-07-24T05:19:27;23.00;99.90
1678;DHT22;6034;46.864;15.216;2023-07-24T05:21:56;22.80;99.90
1678;DHT22;6034;46.864;15.216;2023-07-24T05:24:24;22.60;99.90
1678;DHT22;6034;46.864;15.216;2023-07-24T05:26:52;22.60;99.90
1678;DHT22;6034;46.864;15.216;2023-07-24T05:29:19;22.90;99.90
1678;DHT22;6034;46.864;15.216;2023-07-24T05:31:46;22.90;99.90
1678;DHT22;6034;46.864;15.216;2023-07-24T05:34:13;23.00;99.90
1678;DHT22;6034;46.864;15.216;2023-07-24T05:36:41;23.10;99.90
1678;DHT22;6034;46.864;15.216;2023-07-24T05:39:10;23.30;99.90
1678;DHT22;6034;46.864;15.216;2023-07-24T05:41:38;23.10;99.90
1678;DHT22;6034;46.864;15.216;2023-07-24T05:44:05;23.20;99.90
1678;DHT22;6034;46.864;15.216;2023-07-24T05:46:32;23.30;99.90
1678;DHT22;6034;46.864;15.216;2023-07-24T05:48:59;23.10;99.90
1678;DHT22;6034;46.864;15.216;2023-07-24T05:51:27;23.00;99.90
1678;DHT22;6034;46.864;15.216;2023-07-24T05:53:54;23.10;99.90
1678;DHT22;6034;46.864;15.216;2023-07-24T05:56:23;23.00;99.90
1678;DHT22;6034;46.864;15.216;2023-07-24T05:58:50;23.20;99.90
1678;DHT22;6034;46.864;15.216;2023-07-24T06:01:17;23.00;99.90
1678;DHT22;6034;46.864;15.216;2023-07-24T06:03:44;23.30;99.90
1678;DHT22;6034;46.864;15.216;2023-07-24T06:06:12;23.40;99.90
1678;DHT22;6034;46.864;15.216;2023-07-24T06:08:40;23.40;99.90
1678;DHT22;6034;46.864;15.216;2023-07-24T06:11:08;23.60;99.90
1678;DHT22;6034;46.864;15.216;2023-07-24T06:13:37;23.90;99.90
1678;DHT22;6034;46.864;15.216;2023-07-24T06:16:04;23.90;99.90
1678;DHT22;6034;46.864;15.216;2023-07-24T06:18:33;23.10;99.90
1678;DHT22;6034;46.864;15.216;2023-07-24T06:21:01;23.40;99.90
1678;DHT22;6034;46.864;15.216;2023-07-24T06:23:29;23.60;99.90
1678;DHT22;6034;46.864;15.216;2023-07-24T06:25:56;23.20;99.90
1678;DHT22;6034;46.864;15.216;2023-07-24T06:28:24;23.40;99.90
1678;DHT22;6034;46.864;15.216;2023-07-24T06:30:55;23.80;99.90
1678;DHT22;6034;46.864;15.216;2023-07-24T06:33:22;24.30;99.90
1678;DHT22;6034;46.864;15.216;2023-07-24T06:35:50;24.40;99.90
1678;DHT22;6034;46.864;15.216;2023-07-24T06:38:17;24.50;99.90
1678;DHT22;6034;46.864;15.216;2023-07-24T06:40:47;24.30;99.90
1678;DHT22;6034;46.864;15.216;2023-07-24T06:43:14;24.30;99.90
1678;DHT22;6034;46.864;15.216;2023-07-24T06:45:42;24.40;99.90
1678;DHT22;6034;46.864;15.216;2023-07-24T06:48:13;24.20;99.90
1678;DHT22;6034;46.864;15.216;2023-07-24T06:50:40;24.40;99.90
1678;DHT22;6034;46.864;15.216;2023-07-24T06:53:08;24.70;99.90
1678;DHT22;6034;46.864;15.216;2023-07-24T06:55:35;24.90;99.90
1678;DHT22;6034;46.864;15.216;2023-07-24T06:58:02;24.70;99.90
1678;DHT22;6034;46.864;15.216;2023-07-24T07:00:30;24.50;99.90
1678;DHT22;6034;46.864;15.216;2023-07-24T07:02:57;24.60;99.90
1678;DHT22;6034;46.864;15.216;2023-07-24T07:05:26;24.90;99.90
1678;DHT22;6034;46.864;15.216;2023-07-24T07:07:53;24.90;99.90
1678;DHT22;6034;46.864;15.216;2023-07-24T07:10:20;24.90;99.90
1678;DHT22;6034;46.864;15.216;2023-07-24T07:12:48;24.90;99.90
1678;DHT22;6034;46.864;15.216;2023-07-24T07:15:15;24.80;99.90
1678;DHT22;6034;46.864;15.216;2023-07-24T07:17:42;24.30;99.90
1678;DHT22;6034;46.864;15.216;2023-07-24T07:20:10;24.40;99.90
1678;DHT22;6034;46.864;15.216;2023-07-24T07:22:38;24.70;99.90
1678;DHT22;6034;46.864;15.216;2023-07-24T07:25:06;24.80;99.90
1678;DHT22;6034;46.864;15.216;2023-07-24T07:27:33;24.30;99.90
1678;DHT22;6034;46.864;15.216;2023-07-24T07:30:00;24.70;99.90
1678;DHT22;6034;46.864;15.216;2023-07-24T07:32:28;25.10;99.90
1678;DHT22;6034;46.864;15.216;2023-07-24T07:34:55;25.30;99.90
1678;DHT22;6034;46.864;15.216;2023-07-24T07:37:22;25.30;99.90
1678;DHT22;6034;46.864;15.216;2023-07-24T07:39:51;25.60;99.90
1678;DHT22;6034;46.864;15.216;2023-07-24T07:42:18;25.70;99.90
1678;DHT22;6034;46.864;15.216;2023-07-24T07:44:46;25.90;99.90
1678;DHT22;6034;46.864;15.216;2023-07-24T07:47:13;25.60;99.90
1678;DHT22;6034;46.864;15.216;2023-07-24T07:49:40;25.50;99.90
1678;DHT22;6034;46.864;15.216;2023-07-24T07:52:09;25.40;99.90
1678;DHT22;6034;46.864;15.216;2023-07-24T07:54:37;25.20;99.90
1678;DHT22;6034;46.864;15.216;2023-07-24T07:57:06;25.30;99.90
1678;DHT22;6034;46.864;15.216;2023-07-24T07:59:33;25.80;99.90
1678;DHT22;6034;46.864;15.216;2023-07-24T08:02:01;26.00;99.90
1678;DHT22;6034;46.864;15.216;2023-07-24T08:04:28;26.00;99.90
1678;DHT22;6034;46.864;15.216;2023-07-24T08:06:56;26.00;99.90
1678;DHT22;6034;46.864;15.216;2023-07-24T08:09:23;26.00;99.90
1678;DHT22;6034;46.864;15.216;2023-07-24T08:11:51;26.20;99.90
1678;DHT22;6034;46.864;15.216;2023-07-24T08:14:19;26.40;99.90
1678;DHT22;6034;46.864;15.216;2023-07-24T08:16:48;26.50;99.90
1678;DHT22;6034;46.864;15.216;2023-07-24T08:19:15;26.40;99.90
1678;DHT22;6034;46.864;15.216;2023-07-24T08:21:42;26.60;99.90
1678;DHT22;6034;46.864;15.216;2023-07-24T08:24:10;26.50;99.90
1678;DHT22;6034;46.864;15.216;2023-07-24T08:26:37;26.60;99.90
1678;DHT22;6034;46.864;15.216;2023-07-24T08:29:06;26.80;99.90
1678;DHT22;6034;46.864;15.216;2023-07-24T08:31:35;26.70;99.90
1678;DHT22;6034;46.864;15.216;2023-07-24T08:34:02;26.80;99.90
1678;DHT22;6034;46.864;15.216;2023-07-24T08:36:29;27.00;99.90
1678;DHT22;6034;46.864;15.216;2023-07-24T08:38:56;27.20;99.90
1678;DHT22;6034;46.864;15.216;2023-07-24T08:41:24;27.10;99.90
1678;DHT22;6034;46.864;15.216;2023-07-24T08:43:51;27.30;99.90
1678;DHT22;6034;46.864;15.216;2023-07-24T08:46:20;27.30;99.90
1678;DHT22;6034;46.864;15.216;2023-07-24T08:48:49;27.10;99.90
1678;DHT22;6034;46.864;15.216;2023-07-24T08:51:16;27.00;99.90
1678;DHT22;6034;46.864;15.216;2023-07-24T08:53:48;26.80;99.90
1678;DHT22;6034;46.864;15.216;2023-07-24T08:56:16;26.70;99.90
1678;DHT22;6034;46.864;15.216;2023-07-24T08:58:43;26.70;99.90
1678;DHT22;6034;46.864;15.216;2023-07-24T09:01:10;25.90;99.90
1678;DHT22;6034;46.864;15.216;2023-07-24T09:03:38;26.50;99.90
1678;DHT22;6034;46.864;15.216;2023-07-24T09:06:07;26.80;99.90
1678;DHT22;6034;46.864;15.216;2023-07-24T09:08:35;27.10;99.90
1678;DHT22;6034;46.864;15.216;2023-07-24T09:11:04;27.20;99.90
1678;DHT22;6034;46.864;15.216;2023-07-24T09:13:34;27.50;99.90
1678;DHT22;6034;46.864;15.216;2023-07-24T09:16:02;27.50;99.90
1678;DHT22;6034;46.864;15.216;2023-07-24T09:18:39;27.80;99.90
1678;DHT22;6034;46.864;15.216;2023-07-24T09:21:09;27.60;99.90
1678;DHT22;6034;46.864;15.216;2023-07-24T09:23:37;27.50;99.90
1678;DHT22;6034;46.864;15.216;2023-07-24T09:26:07;27.60;99.90
1678;DHT22;6034;46.864;15.216;2023-07-24T09:28:35;27.60;99.90
1678;DHT22;6034;46.864;15.216;2023-07-24T09:31:02;27.30;99.90
1678;DHT22;6034;46.864;15.216;2023-07-24T09:33:37;27.20;99.90
1678;DHT22;6034;46.864;15.216;2023-07-24T09:36:06;27.20;99.90
1678;DHT22;6034;46.864;15.216;2023-07-24T09:38:35;27.20;99.90
1678;DHT22;6034;46.864;15.216;2023-07-24T09:41:04;26.80;99.90
1678;DHT22;6034;46.864;15.216;2023-07-24T09:43:33;27.00;99.90
1678;DHT22;6034;46.864;15.216;2023-07-24T09:46:01;26.70;99.90
1678;DHT22;6034;46.864;15.216;2023-07-24T09:48:31;26.70;99.90
1678;DHT22;6034;46.864;15.216;2023-07-24T09:51:00;26.90;99.90
1678;DHT22;6034;46.864;15.216;2023-07-24T09:53:32;26.90;99.90
1678;DHT22;6034;46.864;15.216;2023-07-24T09:56:04;27.00;99.90
1678;DHT22;6034;46.864;15.216;2023-07-24T09:58:33;27.20;99.90
1678;DHT22;6034;46.864;15.216;2023-07-24T10:01:02;27.20;99.90
1678;DHT22;6034;46.864;15.216;2023-07-24T10:03:32;27.20;99.90
1678;DHT22;6034;46.864;15.216;2023-07-24T10:06:01;27.20;99.90
1678;DHT22;6034;46.864;15.216;2023-07-24T10:08:28;27.20;99.90
1678;DHT22;6034;46.864;15.216;2023-07-24T10:10:57;27.30;99.90
1678;DHT22;6034;46.864;15.216;2023-07-24T10:13:27;27.50;99.90
1678;DHT22;6034;46.864;15.216;2023-07-24T10:15:55;28.00;99.90
1678;DHT22;6034;46.864;15.216;2023-07-24T10:18:27;28.40;99.90
1678;DHT22;6034;46.864;15.216;2023-07-24T10:21:00;28.10;99.90
1678;DHT22;6034;46.864;15.216;2023-07-24T10:23:28;28.00;99.90
1678;DHT22;6034;46.864;15.216;2023-07-24T10:26:02;27.90;99.90
1678;DHT22;6034;46.864;15.216;2023-07-24T10:28:33;27.90;99.90
1678;DHT22;6034;46.864;15.216;2023-07-24T10:31:01;27.80;99.90
1678;DHT22;6034;46.864;15.216;2023-07-24T10:33:30;27.70;99.90
1678;DHT22;6034;46.864;15.216;2023-07-24T10:36:05;27.60;99.90
1678;DHT22;6034;46.864;15.216;2023-07-24T10:38:36;27.60;99.90
1678;DHT22;6034;46.864;15.216;2023-07-24T10:41:05;27.50;99.90
1678;DHT22;6034;46.864;15.216;2023-07-24T10:43:42;27.50;99.90
1678;DHT22;6034;46.864;15.216;2023-07-24T10:46:10;27.50;99.90
1678;DHT22;6034;46.864;15.216;2023-07-24T10:48:38;27.60;99.90
1678;DHT22;6034;46.864;15.216;2023-07-24T10:51:09;27.50;99.90
1678;DHT22;6034;46.864;15.216;2023-07-24T10:53:43;27.50;99.90
1678;DHT22;6034;46.864;15.216;2023-07-24T10:56:15;27.40;99.90
1678;DHT22;6034;46.864;15.216;2023-07-24T10:58:44;27.50;99.90
1678;DHT22;6034;46.864;15.216;2023-07-24T11:01:11;27.40;99.90
1678;DHT22;6034;46.864;15.216;2023-07-24T11:03:41;27.80;99.90
1678;DHT22;6034;46.864;15.216;2023-07-24T11:06:13;28.20;99.90
1678;DHT22;6034;46.864;15.216;2023-07-24T11:08:41;28.40;99.90
1678;DHT22;6034;46.864;15.216;2023-07-24T11:11:08;28.70;99.90
1678;DHT22;6034;46.864;15.216;2023-07-24T11:13:38;28.70;99.90
1678;DHT22;6034;46.864;15.216;2023-07-24T11:16:08;28.90;99.90
1678;DHT22;6034;46.864;15.216;2023-07-24T11:18:45;29.00;99.90
1678;DHT22;6034;46.864;15.216;2023-07-24T11:21:13;29.20;99.90
1678;DHT22;6034;46.864;15.216;2023-07-24T11:23:46;29.10;99.90
1678;DHT22;6034;46.864;15.216;2023-07-24T11:26:14;29.30;99.90
1678;DHT22;6034;46.864;15.216;2023-07-24T11:28:41;29.20;99.90
1678;DHT22;6034;46.864;15.216;2023-07-24T11:31:10;29.10;99.90
1678;DHT22;6034;46.864;15.216;2023-07-24T11:33:38;28.90;99.90
1678;DHT22;6034;46.864;15.216;2023-07-24T11:36:06;28.90;99.90
1678;DHT22;6034;46.864;15.216;2023-07-24T11:38:34;28.80;99.90
1678;DHT22;6034;46.864;15.216;2023-07-24T11:41:02;28.70;99.90
1678;DHT22;6034;46.864;15.216;2023-07-24T11:43:29;28.60;99.90
1678;DHT22;6034;46.864;15.216;2023-07-24T11:45:57;28.50;99.90
1678;DHT22;6034;46.864;15.216;2023-07-24T11:48:27;28.50;99.90
1678;DHT22;6034;46.864;15.216;2023-07-24T11:50:56;28.40;99.90
1678;DHT22;6034;46.864;15.216;2023-07-24T11:53:27;28.40;99.90
1678;DHT22;6034;46.864;15.216;2023-07-24T11:55:57;28.40;99.90
1678;DHT22;6034;46.864;15.216;2023-07-24T11:58:26;28.30;99.90
1678;DHT22;6034;46.864;15.216;2023-07-24T12:00:56;28.10;99.90
1678;DHT22;6034;46.864;15.216;2023-07-24T12:03:26;28.20;99.90
1678;DHT22;6034;46.864;15.216;2023-07-24T12:05:56;28.00;99.90
1678;DHT22;6034;46.864;15.216;2023-07-24T12:08:30;28.10;99.90
1678;DHT22;6034;46.864;15.216;2023-07-24T12:10:58;28.00;99.90
1678;DHT22;6034;46.864;15.216;2023-07-24T12:13:25;27.90;99.90
1678;DHT22;6034;46.864;15.216;2023-07-24T12:15:53;28.00;99.90
1678;DHT22;6034;46.864;15.216;2023-07-24T12:18:20;27.90;99.90
1678;DHT22;6034;46.864;15.216;2023-07-24T12:20:49;28.00;99.90
1678;DHT22;6034;46.864;15.216;2023-07-24T12:23:16;28.10;99.90
1678;DHT22;6034;46.864;15.216;2023-07-24T12:25:43;28.00;99.90
1678;DHT22;6034;46.864;15.216;2023-07-24T12:28:11;27.90;99.90
1678;DHT22;6034;46.864;15.216;2023-07-24T12:30:38;27.90;99.90
1678;DHT22;6034;46.864;15.216;2023-07-24T12:33:05;27.80;99.90
1678;DHT22;6034;46.864;15.216;2023-07-24T12:35:32;27.80;99.90
1678;DHT22;6034;46.864;15.216;2023-07-24T12:38:01;27.70;99.90
1678;DHT22;6034;46.864;15.216;2023-07-24T12:40:28;27.60;99.90
1678;DHT22;6034;46.864;15.216;2023-07-24T12:42:55;27.60;99.90
1678;DHT22;6034;46.864;15.216;2023-07-24T12:45:23;27.70;99.90
1678;DHT22;6034;46.864;15.216;2023-07-24T12:47:50;27.60;99.90
1678;DHT22;6034;46.864;15.216;2023-07-24T12:50:17;27.60;99.90
1678;DHT22;6034;46.864;15.216;2023-07-24T12:52:44;27.60;99.90
1678;DHT22;6034;46.864;15.216;2023-07-24T12:55:13;27.60;98.90
1678;DHT22;6034;46.864;15.216;2023-07-24T12:57:41;27.70;99.90
1678;DHT22;6034;46.864;15.216;2023-07-24T13:00:09;27.60;99.90
1678;DHT22;6034;46.864;15.216;2023-07-24T13:02:36;27.70;99.90
1678;DHT22;6034;46.864;15.216;2023-07-24T13:05:04;27.80;99.90
1678;DHT22;6034;46.864;15.216;2023-07-24T13:07:31;27.80;99.90
1678;DHT22;6034;46.864;15.216;2023-07-24T13:09:59;27.80;99.90
1678;DHT22;6034;46.864;15.216;2023-07-24T13:12:27;27.80;99.90
1678;DHT22;6034;46.864;15.216;2023-07-24T13:14:54;27.70;99.90
1678;DHT22;6034;46.864;15.216;2023-07-24T13:17:22;27.70;99.90
1678;DHT22;6034;46.864;15.216;2023-07-24T13:19:49;27.90;99.90
1678;DHT22;6034;46.864;15.216;2023-07-24T13:22:16;27.90;99.90
1678;DHT22;6034;46.864;15.216;2023-07-24T13:24:43;28.00;99.90
1678;DHT22;6034;46.864;15.216;2023-07-24T13:27:10;28.00;99.90
1678;DHT22;6034;46.864;15.216;2023-07-24T13:29:39;28.00;99.90
1678;DHT22;6034;46.864;15.216;2023-07-24T13:32:07;28.00;99.90
1678;DHT22;6034;46.864;15.216;2023-07-24T13:34:34;27.90;99.90
1678;DHT22;6034;46.864;15.216;2023-07-24T13:37:02;27.90;99.90
1678;DHT22;6034;46.864;15.216;2023-07-24T13:39:30;27.80;99.90
1678;DHT22;6034;46.864;15.216;2023-07-24T13:41:57;27.60;99.90
1678;DHT22;6034;46.864;15.216;2023-07-24T13:44:24;27.60;99.90
1678;DHT22;6034;46.864;15.216;2023-07-24T13:46:53;27.70;99.90
1678;DHT22;6034;46.864;15.216;2023-07-24T13:49:22;27.70;99.90
1678;DHT22;6034;46.864;15.216;2023-07-24T13:51:49;27.70;99.90
1678;DHT22;6034;46.864;15.216;2023-07-24T13:54:16;27.60;99.90
1678;DHT22;6034;46.864;15.216;2023-07-24T13:56:44;27.30;99.90
1678;DHT22;6034;46.864;15.216;2023-07-24T13:59:12;27.30;99.90
1678;DHT22;6034;46.864;15.216;2023-07-24T14:01:47;27.40;99.90
1678;DHT22;6034;46.864;15.216;2023-07-24T14:04:17;27.70;99.90
1678;DHT22;6034;46.864;15.216;2023-07-24T14:06:44;27.70;99.90
1678;DHT22;6034;46.864;15.216;2023-07-24T14:09:12;27.80;99.90
1678;DHT22;6034;46.864;15.216;2023-07-24T14:11:39;28.00;99.90
1678;DHT22;6034;46.864;15.216;2023-07-24T14:14:07;28.10;99.90
1678;DHT22;6034;46.864;15.216;2023-07-24T14:16:34;28.20;99.90
1678;DHT22;6034;46.864;15.216;2023-07-24T14:19:02;28.20;99.90
1678;DHT22;6034;46.864;15.216;2023-07-24T14:21:31;28.20;99.90
1678;DHT22;6034;46.864;15.216;2023-07-24T14:23:58;28.20;99.90
1678;DHT22;6034;46.864;15.216;2023-07-24T14:26:26;28.20;99.90
1678;DHT22;6034;46.864;15.216;2023-07-24T14:28:54;28.20;99.90
1678;DHT22;6034;46.864;15.216;2023-07-24T14:31:21;28.10;99.80
1678;DHT22;6034;46.864;15.216;2023-07-24T14:33:49;28.10;99.90
1678;DHT22;6034;46.864;15.216;2023-07-24T14:36:16;28.00;98.50
1678;DHT22;6034;46.864;15.216;2023-07-24T14:38:47;27.90;93.90
1678;DHT22;6034;46.864;15.216;2023-07-24T14:41:15;27.90;92.90
1678;DHT22;6034;46.864;15.216;2023-07-24T14:43:43;27.90;93.50
1678;DHT22;6034;46.864;15.216;2023-07-24T14:46:11;27.80;98.10
1678;DHT22;6034;46.864;15.216;2023-07-24T14:48:39;27.80;98.30
1678;DHT22;6034;46.864;15.216;2023-07-24T14:51:07;27.90;96.70
1678;DHT22;6034;46.864;15.216;2023-07-24T14:53:36;27.90;94.00
1678;DHT22;6034;46.864;15.216;2023-07-24T14:56:06;27.80;94.00
1678;DHT22;6034;46.864;15.216;2023-07-24T14:58:34;27.80;94.00
1678;DHT22;6034;46.864;15.216;2023-07-24T15:01:02;27.80;93.50
1678;DHT22;6034;46.864;15.216;2023-07-24T15:03:30;27.80;93.90
1678;DHT22;6034;46.864;15.216;2023-07-24T15:05:58;27.70;92.30
1678;DHT22;6034;46.864;15.216;2023-07-24T15:08:30;27.60;95.40
1678;DHT22;6034;46.864;15.216;2023-07-24T15:11:01;27.50;97.30
1678;DHT22;6034;46.864;15.216;2023-07-24T15:13:31;27.40;96.20
1678;DHT22;6034;46.864;15.216;2023-07-24T15:15:59;27.30;96.20
1678;DHT22;6034;46.864;15.216;2023-07-24T15:18:28;27.20;95.30
1678;DHT22;6034;46.864;15.216;2023-07-24T15:20:56;27.00;99.90
1678;DHT22;6034;46.864;15.216;2023-07-24T15:23:25;27.10;99.90
1678;DHT22;6034;46.864;15.216;2023-07-24T15:25:53;27.20;94.70
1678;DHT22;6034;46.864;15.216;2023-07-24T15:28:22;27.00;98.50
1678;DHT22;6034;46.864;15.216;2023-07-24T15:30:54;27.10;95.80
1678;DHT22;6034;46.864;15.216;2023-07-24T15:33:22;27.30;90.20
1678;DHT22;6034;46.864;15.216;2023-07-24T15:35:50;27.20;94.10
1678;DHT22;6034;46.864;15.216;2023-07-24T15:38:19;27.10;92.50
1678;DHT22;6034;46.864;15.216;2023-07-24T15:40:46;27.20;90.90
1678;DHT22;6034;46.864;15.216;2023-07-24T15:43:14;27.10;92.70
1678;DHT22;6034;46.864;15.216;2023-07-24T15:45:42;26.80;94.60
1678;DHT22;6034;46.864;15.216;2023-07-24T15:48:11;26.80;92.90
1678;DHT22;6034;46.864;15.216;2023-07-24T15:50:38;26.80;90.90
1678;DHT22;6034;46.864;15.216;2023-07-24T15:53:06;26.90;90.90
1678;DHT22;6034;46.864;15.216;2023-07-24T15:55:33;26.90;89.60
1678;DHT22;6034;46.864;15.216;2023-07-24T15:58:00;26.80;92.00
1678;DHT22;6034;46.864;15.216;2023-07-24T16:00:28;26.60;92.30
1678;DHT22;6034;46.864;15.216;2023-07-24T16:02:56;26.60;93.00
1678;DHT22;6034;46.864;15.216;2023-07-24T16:05:25;26.50;92.20
1678;DHT22;6034;46.864;15.216;2023-07-24T16:07:52;26.50;93.00
1678;DHT22;6034;46.864;15.216;2023-07-24T16:10:21;26.30;92.20
1678;DHT22;6034;46.864;15.216;2023-07-24T16:12:49;26.30;90.30
1678;DHT22;6034;46.864;15.216;2023-07-24T16:15:16;26.40;91.80
1678;DHT22;6034;46.864;15.216;2023-07-24T16:17:43;26.30;91.10
1678;DHT22;6034;46.864;15.216;2023-07-24T16:20:11;26.30;91.50
1678;DHT22;6034;46.864;15.216;2023-07-24T16:22:40;26.20;90.40
1678;DHT22;6034;46.864;15.216;2023-07-24T16:25:08;26.20;92.30
1678;DHT22;6034;46.864;15.216;2023-07-24T16:27:35;26.20;90.60
1678;DHT22;6034;46.864;15.216;2023-07-24T16:30:03;26.20;90.90
1678;DHT22;6034;46.864;15.216;2023-07-24T16:32:30;26.20;91.20
1678;DHT22;6034;46.864;15.216;2023-07-24T16:34:58;26.20;87.80
1678;DHT22;6034;46.864;15.216;2023-07-24T16:37:25;26.20;90.30
1678;DHT22;6034;46.864;15.216;2023-07-24T16:39:55;26.20;87.80
1678;DHT22;6034;46.864;15.216;2023-07-24T16:42:23;26.10;89.90
1678;DHT22;6034;46.864;15.216;2023-07-24T16:44:51;26.10;88.10
1678;DHT22;6034;46.864;15.216;2023-07-24T16:47:18;26.20;87.50
1678;DHT22;6034;46.864;15.216;2023-07-24T16:49:46;26.00;85.60
1678;DHT22;6034;46.864;15.216;2023-07-24T16:52:14;26.10;87.50
1678;DHT22;6034;46.864;15.216;2023-07-24T16:54:42;25.90;93.10
1678;DHT22;6034;46.864;15.216;2023-07-24T16:57:12;25.80;92.20
1678;DHT22;6034;46.864;15.216;2023-07-24T16:59:40;25.90;88.50
1678;DHT22;6034;46.864;15.216;2023-07-24T17:02:08;25.90;90.70
1678;DHT22;6034;46.864;15.216;2023-07-24T17:04:35;25.80;89.20
1678;DHT22;6034;46.864;15.216;2023-07-24T17:07:03;25.80;90.10
1678;DHT22;6034;46.864;15.216;2023-07-24T17:09:31;25.80;90.00
1678;DHT22;6034;46.864;15.216;2023-07-24T17:11:59;25.80;90.40
1678;DHT22;6034;46.864;15.216;2023-07-24T17:14:30;25.60;90.50
1678;DHT22;6034;46.864;15.216;2023-07-24T17:16:59;25.60;90.30
1678;DHT22;6034;46.864;15.216;2023-07-24T17:19:28;25.70;90.10
1678;DHT22;6034;46.864;15.216;2023-07-24T17:21:55;25.60;91.50
1678;DHT22;6034;46.864;15.216;2023-07-24T17:24:23;25.60;91.90
1678;DHT22;6034;46.864;15.216;2023-07-24T17:26:52;25.60;91.20
1678;DHT22;6034;46.864;15.216;2023-07-24T17:29:19;25.60;91.30
1678;DHT22;6034;46.864;15.216;2023-07-24T17:31:49;25.50;91.00
1678;DHT22;6034;46.864;15.216;2023-07-24T17:34:17;25.50;90.50
1678;DHT22;6034;46.864;15.216;2023-07-24T17:36:48;25.50;91.50
1678;DHT22;6034;46.864;15.216;2023-07-24T17:39:17;25.60;89.90
1678;DHT22;6034;46.864;15.216;2023-07-24T17:41:46;25.60;89.40
1678;DHT22;6034;46.864;15.216;2023-07-24T17:44:14;25.90;91.00
1678;DHT22;6034;46.864;15.216;2023-07-24T17:46:42;25.50;90.50
1678;DHT22;6034;46.864;15.216;2023-07-24T17:49:14;25.40;92.60
1678;DHT22;6034;46.864;15.216;2023-07-24T17:51:43;25.30;92.90
1678;DHT22;6034;46.864;15.216;2023-07-24T17:54:13;25.30;93.50
1678;DHT22;6034;46.864;15.216;2023-07-24T17:56:41;25.20;92.70
1678;DHT22;6034;46.864;15.216;2023-07-24T17:59:10;25.20;93.30
1678;DHT22;6034;46.864;15.216;2023-07-24T18:01:38;25.10;94.30
1678;DHT22;6034;46.864;15.216;2023-07-24T18:04:05;25.00;94.60
1678;DHT22;6034;46.864;15.216;2023-07-24T18:06:36;25.00;94.60
1678;DHT22;6034;46.864;15.216;2023-07-24T18:09:06;24.90;95.40
1678;DHT22;6034;46.864;15.216;2023-07-24T18:11:34;24.80;95.10
1678;DHT22;6034;46.864;15.216;2023-07-24T18:14:04;24.90;95.40
1678;DHT22;6034;46.864;15.216;2023-07-24T18:16:32;24.80;95.10
1678;DHT22;6034;46.864;15.216;2023-07-24T18:19:00;24.80;94.80
1678;DHT22;6034;46.864;15.216;2023-07-24T18:21:31;24.90;94.00
1678;DHT22;6034;46.864;15.216;2023-07-24T18:24:03;24.90;94.10
1678;DHT22;6034;46.864;15.216;2023-07-24T18:26:31;24.80;94.30
1678;DHT22;6034;46.864;15.216;2023-07-24T18:29:00;24.80;94.00
1678;DHT22;6034;46.864;15.216;2023-07-24T18:31:28;24.70;94.20
1678;DHT22;6034;46.864;15.216;2023-07-24T18:33:57;24.80;95.60
1678;DHT22;6034;46.864;15.216;2023-07-24T18:36:26;24.90;94.60
1678;DHT22;6034;46.864;15.216;2023-07-24T18:38:54;24.90;95.10
1678;DHT22;6034;46.864;15.216;2023-07-24T18:41:26;24.90;95.40
1678;DHT22;6034;46.864;15.216;2023-07-24T18:43:56;24.90;95.40
1678;DHT22;6034;46.864;15.216;2023-07-24T18:46:24;24.80;95.90
1678;DHT22;6034;46.864;15.216;2023-07-24T18:48:52;24.70;95.30
1678;DHT22;6034;46.864;15.216;2023-07-24T18:51:20;24.60;95.90
1678;DHT22;6034;46.864;15.216;2023-07-24T18:53:48;24.60;95.80
1678;DHT22;6034;46.864;15.216;2023-07-24T18:56:18;24.50;96.60
1678;DHT22;6034;46.864;15.216;2023-07-24T18:58:50;24.50;97.40
1678;DHT22;6034;46.864;15.216;2023-07-24T19:01:17;24.50;97.00
1678;DHT22;6034;46.864;15.216;2023-07-24T19:03:46;24.60;97.60
1678;DHT22;6034;46.864;15.216;2023-07-24T19:06:15;24.60;96.70
1678;DHT22;6034;46.864;15.216;2023-07-24T19:08:47;24.60;97.00
1678;DHT22;6034;46.864;15.216;2023-07-24T19:11:15;24.60;97.60
1678;DHT22;6034;46.864;15.216;2023-07-24T19:13:43;24.60;95.90
1678;DHT22;6034;46.864;15.216;2023-07-24T19:16:16;24.50;95.80
1678;DHT22;6034;46.864;15.216;2023-07-24T19:18:45;24.40;95.60
1678;DHT22;6034;46.864;15.216;2023-07-24T19:21:13;24.30;94.90
1678;DHT22;6034;46.864;15.216;2023-07-24T19:23:42;24.30;95.80
1678;DHT22;6034;46.864;15.216;2023-07-24T19:26:13;24.30;95.90
1678;DHT22;6034;46.864;15.216;2023-07-24T19:28:40;24.30;96.40
1678;DHT22;6034;46.864;15.216;2023-07-24T19:31:10;24.00;97.00
1678;DHT22;6034;46.864;15.216;2023-07-24T19:33:41;23.70;99.90
1678;DHT22;6034;46.864;15.216;2023-07-24T19:36:12;24.00;99.70
1678;DHT22;6034;46.864;15.216;2023-07-24T19:38:41;24.00;99.90
1678;DHT22;6034;46.864;15.216;2023-07-24T19:41:10;23.80;99.90
1678;DHT22;6034;46.864;15.216;2023-07-24T19:43:39;23.70;99.90
1678;DHT22;6034;46.864;15.216;2023-07-24T19:46:07;23.70;99.90
1678;DHT22;6034;46.864;15.216;2023-07-24T19:48:36;23.70;99.90
1678;DHT22;6034;46.864;15.216;2023-07-24T19:51:09;23.60;99.90
1678;DHT22;6034;46.864;15.216;2023-07-24T19:53:37;23.60;98.00
1678;DHT22;6034;46.864;15.216;2023-07-24T19:56:06;23.50;99.90
1678;DHT22;6034;46.864;15.216;2023-07-24T19:58:34;23.50;99.90
1678;DHT22;6034;46.864;15.216;2023-07-24T20:01:04;23.50;99.90
1678;DHT22;6034;46.864;15.216;2023-07-24T20:03:33;23.50;99.90
1678;DHT22;6034;46.864;15.216;2023-07-24T20:06:02;23.40;99.90
1678;DHT22;6034;46.864;15.216;2023-07-24T20:08:32;23.40;99.90
1678;DHT22;6034;46.864;15.216;2023-07-24T20:11:04;23.30;99.90
1678;DHT22;6034;46.864;15.216;2023-07-24T20:13:34;23.20;99.90
1678;DHT22;6034;46.864;15.216;2023-07-24T20:16:04;23.10;99.90
1678;DHT22;6034;46.864;15.216;2023-07-24T20:18:32;23.20;99.90
1678;DHT22;6034;46.864;15.216;2023-07-24T20:21:01;23.30;98.00